createdAt,value
2023-05-02T00:00:00.970Z,99644.19
2023-05-02T00:02:29.757Z,99639.16
2023-05-02T00:04:57.854Z,99639.19
2023-05-02T00:07:26.671Z,99629.97
2023-05-02T00:09:54.992Z,99629.97
2023-05-02T00:12:23.093Z,99637.50
2023-05-02T00:14:52.553Z,99638.41
2023-05-02T00:17:22.026Z,99634.19
2023-05-02T00:19:49.896Z,99640.91
2023-05-02T00:22:17.823Z,99635.09
2023-05-02T00:24:45.812Z,99635.16
2023-05-02T00:27:14.277Z,99629.41
2023-05-02T00:29:42.501Z,99631.25
2023-05-02T00:32:11.823Z,99637.31
2023-05-02T00:34:39.757Z,99630.72
2023-05-02T00:37:07.652Z,99630.50
2023-05-02T00:39:35.859Z,99612.44
2023-05-02T00:42:04.433Z,99629.31
2023-05-02T00:44:32.691Z,99640.13
2023-05-02T00:47:02.622Z,99635.81
2023-05-02T00:49:32.594Z,99635.00
2023-05-02T00:52:00.862Z,99625.81
2023-05-02T00:54:28.994Z,99637.56
2023-05-02T00:56:56.929Z,99638.44
2023-05-02T00:59:24.872Z,99642.00
2023-05-02T01:02:01.741Z,99633.75
2023-05-02T01:04:41.702Z,99638.88
2023-05-02T01:07:24.016Z,99634.72
2023-05-02T01:10:03.228Z,99634.53
2023-05-02T01:12:36.510Z,99635.34
2023-05-02T01:15:08.681Z,99636.13
2023-05-02T01:17:38.450Z,99627.63
2023-05-02T01:20:12.875Z,99641.16
2023-05-02T01:22:42.457Z,99640.31
2023-05-02T01:25:28.764Z,99645.38
2023-05-02T01:28:09.112Z,99635.34
2023-05-02T01:30:42.891Z,99634.59
2023-05-02T01:33:13.227Z,99634.59
2023-05-02T01:35:43.937Z,99637.13
2023-05-02T01:38:16.667Z,99639.69
2023-05-02T01:40:46.624Z,99641.38
2023-05-02T01:43:16.583Z,99644.72
2023-05-02T01:45:48.341Z,99632.09
2023-05-02T01:48:18.810Z,99631.22
2023-05-02T01:50:48.774Z,99629.56
2023-05-02T01:53:17.456Z,99627.88
2023-05-02T01:55:47.548Z,99634.47
2023-05-02T01:58:17.783Z,99633.56
2023-05-02T02:00:47.880Z,99633.59
2023-05-02T02:03:18.908Z,99626.88
2023-05-02T02:05:50.294Z,99635.25
2023-05-02T02:08:18.288Z,99632.78
2023-05-02T02:10:49.920Z,99626.94
2023-05-02T02:13:19.825Z,99621.91
2023-05-02T02:15:52.062Z,99624.41
2023-05-02T02:18:23.109Z,99628.59
2023-05-02T02:20:52.151Z,99628.63
2023-05-02T02:23:24.568Z,99628.63
2023-05-02T02:25:54.419Z,99625.25
2023-05-02T02:28:22.345Z,99624.44
2023-05-02T02:30:51.891Z,99624.41
2023-05-02T02:33:21.116Z,99618.47
2023-05-02T02:35:54.853Z,99627.63
2023-05-02T02:38:31.681Z,99637.50
2023-05-02T02:41:07.532Z,99636.44
2023-05-02T02:43:45.558Z,99643.78
2023-05-02T02:46:29.217Z,99634.59
2023-05-02T02:49:06.677Z,99643.34
2023-05-02T02:51:48.864Z,99636.50
2023-05-02T02:54:27.418Z,99631.63
2023-05-02T02:57:03.268Z,99641.16
2023-05-02T02:59:35.055Z,99644.53
2023-05-02T03:02:09.271Z,99642.97
2023-05-02T03:04:40.114Z,99643.59
2023-05-02T03:07:08.317Z,99647.53
2023-05-02T03:09:42.896Z,99649.28
2023-05-02T03:12:13.646Z,99654.44
2023-05-02T03:14:42.340Z,99640.91
2023-05-02T03:17:11.630Z,99649.56
2023-05-02T03:19:39.535Z,99655.53
2023-05-02T03:22:07.612Z,99657.13
2023-05-02T03:24:37.251Z,99653.50
2023-05-02T03:27:06.367Z,99652.34
2023-05-02T03:29:40.307Z,99652.41
2023-05-02T03:32:08.824Z,99651.72
2023-05-02T03:34:39.874Z,99655.22
2023-05-02T03:37:08.682Z,99654.38
2023-05-02T03:39:36.605Z,99664.50
2023-05-02T03:42:06.591Z,99656.94
2023-05-02T03:44:34.567Z,99665.28
2023-05-02T03:47:03.495Z,99664.44
2023-05-02T03:49:37.072Z,99662.63
2023-05-02T03:52:06.995Z,99656.66
2023-05-02T03:54:36.742Z,99670.16
2023-05-02T03:57:05.918Z,99675.97
2023-05-02T03:59:35.170Z,99674.34
2023-05-02T04:02:11.265Z,99670.19
2023-05-02T04:04:43.902Z,99669.41
2023-05-02T04:07:19.278Z,99672.97
2023-05-02T04:09:54.346Z,99672.22
2023-05-02T04:12:22.431Z,99679.84
2023-05-02T04:14:52.606Z,99673.84
2023-05-02T04:17:24.139Z,99675.50
2023-05-02T04:19:52.912Z,99679.72
2023-05-02T04:22:26.432Z,99673.09
2023-05-02T04:24:58.957Z,99676.44
2023-05-02T04:27:28.639Z,99674.53
2023-05-02T04:29:56.629Z,99675.22
2023-05-02T04:32:24.824Z,99678.72
2023-05-02T04:34:53.424Z,99676.44
2023-05-02T04:37:22.674Z,99687.47
2023-05-02T04:39:52.318Z,99684.13
2023-05-02T04:42:25.058Z,99686.03
2023-05-02T04:45:02.880Z,99679.34
2023-05-02T04:47:31.074Z,99689.22
2023-05-02T04:49:59.384Z,99689.44
2023-05-02T04:52:27.381Z,99690.78
2023-05-02T04:54:57.184Z,99695.28
2023-05-02T04:57:25.614Z,99689.69
2023-05-02T04:59:57.580Z,99694.03
2023-05-02T05:02:26.677Z,99690.81
2023-05-02T05:04:56.071Z,99687.50
2023-05-02T05:07:24.270Z,99684.97
2023-05-02T05:09:53.775Z,99686.66
2023-05-02T05:12:25.617Z,99689.19
2023-05-02T05:14:54.313Z,99686.75
2023-05-02T05:17:24.488Z,99702.34
2023-05-02T05:19:52.515Z,99701.25
2023-05-02T05:22:21.613Z,99700.56
2023-05-02T05:24:53.721Z,99703.19
2023-05-02T05:27:23.467Z,99699.91
2023-05-02T05:29:52.987Z,99705.06
2023-05-02T05:32:21.947Z,99707.63
2023-05-02T05:34:52.926Z,99713.53
2023-05-02T05:37:22.917Z,99718.50
2023-05-02T05:39:50.828Z,99717.38
2023-05-02T05:42:18.904Z,99717.38
2023-05-02T05:44:50.304Z,99718.56
2023-05-02T05:47:22.767Z,99714.59
2023-05-02T05:49:54.908Z,99714.19
2023-05-02T05:52:25.156Z,99713.59
2023-05-02T05:54:55.508Z,99721.38
2023-05-02T05:57:24.057Z,99719.78
2023-05-02T05:59:52.489Z,99715.72
2023-05-02T06:02:22.991Z,99718.34
2023-05-02T06:04:51.124Z,99724.28
2023-05-02T06:07:22.017Z,99715.16
2023-05-02T06:09:50.245Z,99726.91
2023-05-02T06:12:19.461Z,99728.56
2023-05-02T06:14:48.249Z,99735.16
2023-05-02T06:17:16.634Z,99725.09
2023-05-02T06:19:45.925Z,99734.44
2023-05-02T06:22:13.986Z,99732.81
2023-05-02T06:24:41.932Z,99739.59
2023-05-02T06:27:09.760Z,99743.94
2023-05-02T06:29:37.815Z,99744.88
2023-05-02T06:32:06.570Z,99744.16
2023-05-02T06:34:34.805Z,99744.25
2023-05-02T06:37:04.127Z,99750.25
2023-05-02T06:39:31.987Z,99748.66
2023-05-02T06:42:00.148Z,99740.34
2023-05-02T06:44:29.454Z,99743.78
2023-05-02T06:46:57.364Z,99753.91
2023-05-02T06:49:25.347Z,99758.13
2023-05-02T06:51:53.224Z,99759.81
2023-05-02T06:54:22.846Z,99760.69
2023-05-02T06:56:50.808Z,99762.34
2023-05-02T06:59:18.794Z,99770.81
2023-05-02T07:01:46.693Z,99764.06
2023-05-02T07:04:14.625Z,99764.91
2023-05-02T07:06:42.621Z,99760.69
2023-05-02T07:09:10.672Z,99766.56
2023-05-02T07:11:40.070Z,99771.63
2023-05-02T07:14:08.568Z,99765.75
2023-05-02T07:16:36.670Z,99769.13
2023-05-02T07:19:06.726Z,99764.88
2023-05-02T07:21:34.747Z,99773.38
2023-05-02T07:24:02.658Z,99772.53
2023-05-02T07:26:31.398Z,99770.84
2023-05-02T07:29:00.969Z,99777.56
2023-05-02T07:31:28.848Z,99777.56
2023-05-02T07:33:56.867Z,99774.22
2023-05-02T07:36:24.918Z,99779.28
2023-05-02T07:38:52.954Z,99785.16
2023-05-02T07:41:21.014Z,99783.47
2023-05-02T07:43:48.924Z,99789.38
2023-05-02T07:46:18.223Z,99775.84
2023-05-02T07:48:46.281Z,99781.75
2023-05-02T07:51:14.224Z,99780.91
2023-05-02T07:53:42.074Z,99775.81
2023-05-02T07:56:10.019Z,99776.59
2023-05-02T07:58:38.200Z,99775.72
2023-05-02T08:01:06.292Z,99771.50
2023-05-02T08:03:35.746Z,99774.88
2023-05-02T08:06:04.178Z,99774.03
2023-05-02T08:08:32.252Z,99775.69
2023-05-02T08:11:00.118Z,99777.38
2023-05-02T08:13:28.576Z,99781.53
2023-05-02T08:15:58.342Z,99768.78
2023-05-02T08:18:26.656Z,99776.38
2023-05-02T08:20:57.752Z,99776.41
2023-05-02T08:23:25.754Z,99780.69
2023-05-02T08:25:53.759Z,99777.31
2023-05-02T08:28:21.735Z,99784.88
2023-05-02T08:30:49.743Z,99780.59
2023-05-02T08:33:17.807Z,99779.66
2023-05-02T08:35:45.978Z,99777.09
2023-05-02T08:38:15.588Z,99776.16
2023-05-02T08:40:43.585Z,99772.69
2023-05-02T08:43:12.951Z,99780.22
2023-05-02T08:45:41.884Z,99778.50
2023-05-02T08:48:11.856Z,99782.66
2023-05-02T08:50:41.761Z,99782.66
2023-05-02T08:53:11.266Z,99779.41
2023-05-02T08:55:41.999Z,99775.13
2023-05-02T08:58:11.451Z,99770.03
2023-05-02T09:00:41.341Z,99771.66
2023-05-02T09:03:23.806Z,99769.81
2023-05-02T09:05:55.193Z,99762.97
2023-05-02T09:08:24.288Z,99762.81
2023-05-02T09:10:53.932Z,99759.28
2023-05-02T09:13:36.322Z,99750.69
2023-05-02T09:16:06.433Z,99758.16
2023-05-02T09:18:36.551Z,99760.69
2023-05-02T09:21:08.955Z,99752.34
2023-05-02T09:23:42.212Z,99762.50
2023-05-02T09:26:17.024Z,99769.34
2023-05-02T09:28:46.981Z,99767.69
2023-05-02T09:31:22.873Z,99766.81
2023-05-02T09:33:55.780Z,99771.03
2023-05-02T09:36:23.917Z,99760.88
2023-05-02T09:38:52.204Z,99764.25
2023-05-02T09:41:22.145Z,99762.56
2023-05-02T09:43:57.058Z,99764.31
2023-05-02T09:46:25.069Z,99769.50
2023-05-02T09:48:54.267Z,99761.06
2023-05-02T09:51:23.058Z,99766.97
2023-05-02T09:53:51.593Z,99764.38
2023-05-02T09:56:21.890Z,99766.91
2023-05-02T09:58:50.462Z,99766.19
2023-05-02T10:01:19.623Z,99766.22
2023-05-02T10:03:49.436Z,99766.31
2023-05-02T10:06:20.125Z,99765.47
2023-05-02T10:08:49.411Z,99762.84
2023-05-02T10:11:17.401Z,99762.81
2023-05-02T10:13:48.010Z,99750.94
2023-05-02T10:16:24.550Z,99754.34
2023-05-02T10:18:59.648Z,99752.69
2023-05-02T10:21:28.512Z,99744.19
2023-05-02T10:23:56.905Z,99742.44
2023-05-02T10:26:25.189Z,99737.28
2023-05-02T10:28:56.942Z,99731.34
2023-05-02T10:31:25.848Z,99732.25
2023-05-02T10:33:53.916Z,99735.66
2023-05-02T10:36:23.740Z,99734.78
2023-05-02T10:38:52.438Z,99735.56
2023-05-02T10:41:23.458Z,99739.63
2023-05-02T10:43:51.421Z,99735.25
2023-05-02T10:46:32.944Z,99736.78
2023-05-02T10:49:08.509Z,99737.53
2023-05-02T10:51:37.984Z,99728.09
2023-05-02T10:54:22.978Z,99735.59
2023-05-02T10:57:05.933Z,99729.56
2023-05-02T10:59:36.083Z,99731.31
2023-05-02T11:02:27.977Z,99729.56
2023-05-02T11:05:04.189Z,99730.41
2023-05-02T11:07:35.826Z,99726.97
2023-05-02T11:10:27.463Z,99723.56
2023-05-02T11:12:57.365Z,99720.22
2023-05-02T11:15:57.032Z,99726.16
2023-05-02T11:18:26.373Z,99724.47
2023-05-02T11:21:28.572Z,99732.09
2023-05-02T11:24:29.771Z,99729.56
2023-05-02T11:27:39.508Z,99733.63
2023-05-02T11:30:09.577Z,99735.94
2023-05-02T11:33:20.060Z,99729.75
2023-05-02T11:35:50.078Z,99726.94
2023-05-02T11:38:20.728Z,99725.16
2023-05-02T11:40:56.960Z,99720.00
2023-05-02T11:43:26.339Z,99732.56
2023-05-02T11:45:55.170Z,99714.81
2023-05-02T11:48:27.183Z,99721.31
2023-05-02T11:50:58.295Z,99721.13
2023-05-02T11:53:27.812Z,99714.94
2023-05-02T11:55:57.439Z,99713.88
2023-05-02T11:58:29.534Z,99720.44
2023-05-02T12:00:57.554Z,99721.00
2023-05-02T12:03:29.153Z,99718.06
2023-05-02T12:05:59.677Z,99715.06
2023-05-02T12:08:28.815Z,99714.16
2023-05-02T12:10:57.513Z,99720.09
2023-05-02T12:13:27.589Z,99718.09
2023-05-02T12:15:56.417Z,99718.03
2023-05-02T12:18:27.062Z,99721.66
2023-05-02T12:20:56.375Z,99720.69
2023-05-02T12:23:27.328Z,99718.38
2023-05-02T12:25:55.227Z,99718.47
2023-05-02T12:28:24.012Z,99710.84
2023-05-02T12:30:52.713Z,99706.66
2023-05-02T12:33:20.734Z,99710.75
2023-05-02T12:35:48.975Z,99705.31
2023-05-02T12:38:18.708Z,99704.31
2023-05-02T12:40:53.355Z,99702.16
2023-05-02T12:43:22.101Z,99704.34
2023-05-02T12:45:50.820Z,99711.03
2023-05-02T12:48:26.434Z,99707.13
2023-05-02T12:50:55.821Z,99707.63
2023-05-02T12:53:40.581Z,99709.75
2023-05-02T12:56:10.607Z,99705.75
2023-05-02T12:58:43.942Z,99705.75
2023-05-02T13:01:12.684Z,99708.50
2023-05-02T13:03:40.920Z,99706.00
2023-05-02T13:06:09.275Z,99698.00
2023-05-02T13:08:37.500Z,99704.00
2023-05-02T13:11:05.877Z,99706.47
2023-05-02T13:13:35.618Z,99707.47
2023-05-02T13:16:04.085Z,99702.81
2023-05-02T13:18:32.108Z,99705.03
2023-05-02T13:21:00.116Z,99701.56
2023-05-02T13:23:28.039Z,99708.06
2023-05-02T13:25:55.976Z,99703.72
2023-05-02T13:28:23.856Z,99700.16
2023-05-02T13:30:53.240Z,99689.38
2023-05-02T13:33:21.198Z,99688.69
2023-05-02T13:35:49.149Z,99695.63
2023-05-02T13:38:17.085Z,99682.53
2023-05-02T13:40:45.351Z,99686.25
2023-05-02T13:43:13.253Z,99693.38
2023-05-02T13:45:41.509Z,99686.00
2023-05-02T13:48:10.848Z,99694.06
2023-05-02T13:50:39.159Z,99687.34
2023-05-02T13:53:07.158Z,99681.75
2023-05-02T13:55:35.147Z,99689.19
2023-05-02T13:58:03.120Z,99692.78
2023-05-02T14:00:31.280Z,99692.03
2023-05-02T14:02:59.277Z,99700.41
2023-05-02T14:05:28.612Z,99706.41
2023-05-02T14:07:56.491Z,99690.56
2023-05-02T14:10:24.406Z,99691.84
2023-05-02T14:12:53.102Z,99691.13
2023-05-02T14:15:21.016Z,99690.16
2023-05-02T14:17:50.506Z,99665.63
2023-05-02T14:20:18.458Z,99691.06
2023-05-02T14:22:47.727Z,99687.84
2023-05-02T14:25:19.614Z,99685.78
2023-05-02T14:27:47.531Z,99693.75
2023-05-02T14:30:15.462Z,99696.66
2023-05-02T14:32:43.382Z,99691.97
2023-05-02T14:35:11.482Z,99689.97
2023-05-02T14:37:39.430Z,99692.38
2023-05-02T14:40:10.705Z,99683.41
2023-05-02T14:42:38.549Z,99684.03
2023-05-02T14:45:07.453Z,99687.63
2023-05-02T14:47:35.431Z,99702.31
2023-05-02T14:50:04.425Z,99697.06
2023-05-02T14:52:32.890Z,99694.59
2023-05-02T14:55:01.057Z,99695.91
2023-05-02T14:57:30.970Z,99706.91
2023-05-02T14:59:59.135Z,99713.13
2023-05-02T15:02:27.202Z,99719.25
2023-05-02T15:04:55.390Z,99709.13
2023-05-02T15:07:23.619Z,99711.88
2023-05-02T15:09:51.792Z,99719.03
2023-05-02T15:12:20.048Z,99718.19
2023-05-02T15:14:49.444Z,99721.00
2023-05-02T15:17:17.398Z,99710.94
2023-05-02T15:19:45.235Z,99733.25
2023-05-02T15:22:13.149Z,99719.84
2023-05-02T15:24:40.993Z,99737.06
2023-05-02T15:27:09.694Z,99733.03
2023-05-02T15:29:37.535Z,99730.66
2023-05-02T15:32:07.072Z,99736.50
2023-05-02T15:34:35.345Z,99737.25
2023-05-02T15:37:03.625Z,99732.19
2023-05-02T15:39:31.538Z,99729.72
2023-05-02T15:41:59.453Z,99742.50
2023-05-02T15:44:28.069Z,99731.75
2023-05-02T15:46:56.111Z,99738.81
2023-05-02T15:49:31.599Z,99739.97
2023-05-02T15:51:59.550Z,99731.75
2023-05-02T15:54:27.671Z,99731.97
2023-05-02T15:56:55.888Z,99734.63
2023-05-02T15:59:23.924Z,99744.00
2023-05-02T16:01:51.863Z,99741.59
2023-05-02T16:04:19.949Z,99740.78
2023-05-02T16:06:49.244Z,99741.78
2023-05-02T16:09:17.192Z,99742.69
2023-05-02T16:11:45.429Z,99746.13
2023-05-02T16:14:13.311Z,99743.69
2023-05-02T16:16:41.403Z,99746.25
2023-05-02T16:19:13.375Z,99748.81
2023-05-02T16:21:42.227Z,99744.59
2023-05-02T16:24:11.587Z,99743.03
2023-05-02T16:26:39.483Z,99742.25
2023-05-02T16:29:07.788Z,99747.34
2023-05-02T16:31:36.391Z,99741.50
2023-05-02T16:34:04.411Z,99746.66
2023-05-02T16:36:33.334Z,99751.75
2023-05-02T16:39:01.237Z,99745.91
2023-05-02T16:41:30.437Z,99760.22
2023-05-02T16:43:58.358Z,99761.97
2023-05-02T16:46:26.868Z,99767.06
2023-05-02T16:48:54.787Z,99770.47
2023-05-02T16:51:22.862Z,99779.75
2023-05-02T16:53:51.055Z,99777.22
2023-05-02T16:56:18.942Z,99773.00
2023-05-02T16:58:48.234Z,99777.28
2023-05-02T17:01:17.294Z,99781.53
2023-05-02T17:03:45.356Z,99789.97
2023-05-02T17:06:13.343Z,99800.13
2023-05-02T17:08:41.562Z,99801.81
2023-05-02T17:11:09.619Z,99811.09
2023-05-02T17:13:37.718Z,99811.09
2023-05-02T17:16:08.220Z,99822.91
2023-05-02T17:18:36.343Z,99834.72
2023-05-02T17:21:04.280Z,99841.44
2023-05-02T17:23:32.351Z,99862.56
2023-05-02T17:26:00.759Z,99873.66
2023-05-02T17:28:29.243Z,99881.28
2023-05-02T17:30:59.347Z,99874.56
2023-05-02T17:33:28.941Z,99904.09
2023-05-02T17:35:56.874Z,99904.09
2023-05-02T17:38:26.702Z,99911.69
2023-05-02T17:40:54.725Z,99923.47
2023-05-02T17:43:22.614Z,99924.31
2023-05-02T17:45:50.659Z,99921.75
2023-05-02T17:48:18.908Z,99930.16
2023-05-02T17:50:49.865Z,99935.22
2023-05-02T17:53:17.935Z,99929.28
2023-05-02T17:55:45.859Z,99941.91
2023-05-02T17:58:14.080Z,99945.25
2023-05-02T18:00:42.014Z,99942.75
2023-05-02T18:03:10.295Z,99942.78
2023-05-02T18:05:39.625Z,99939.44
2023-05-02T18:08:08.917Z,99930.97
2023-05-02T18:10:37.915Z,99924.09
2023-05-02T18:13:05.872Z,99911.19
2023-05-02T18:15:33.893Z,99903.38
2023-05-02T18:18:01.826Z,99909.13
2023-05-02T18:20:29.762Z,99909.84
2023-05-02T18:22:59.088Z,99903.78
2023-05-02T18:25:28.315Z,99902.81
2023-05-02T18:27:56.280Z,99900.09
2023-05-02T18:30:24.194Z,99902.50
2023-05-02T18:32:52.124Z,99899.13
2023-05-02T18:35:20.119Z,99904.06
2023-05-02T18:37:48.063Z,99914.19
2023-05-02T18:40:16.295Z,99918.56
2023-05-02T18:42:45.521Z,99931.19
2023-05-02T18:45:13.359Z,99932.94
2023-05-02T18:47:41.325Z,99940.50
2023-05-02T18:50:09.817Z,99948.84
2023-05-02T18:52:37.704Z,99937.91
2023-05-02T18:55:06.495Z,99959.34
2023-05-02T18:57:34.713Z,99969.66
2023-05-02T19:00:06.348Z,99967.31
2023-05-02T19:02:34.535Z,99967.47
2023-05-02T19:05:02.683Z,99958.28
2023-05-02T19:07:30.787Z,99939.59
2023-05-02T19:09:58.804Z,99945.31
2023-05-02T19:12:26.785Z,99956.03
2023-05-02T19:14:54.797Z,99963.47
2023-05-02T19:17:26.909Z,99958.53
2023-05-02T19:19:56.173Z,99974.75
2023-05-02T19:22:27.630Z,99971.56
2023-05-02T19:24:55.776Z,99981.78
2023-05-02T19:27:23.749Z,99988.63
2023-05-02T19:29:54.060Z,99981.94
2023-05-02T19:32:22.865Z,99992.81
2023-05-02T19:34:52.262Z,99996.25
2023-05-02T19:37:20.154Z,100003.03
2023-05-02T19:39:48.108Z,99998.03
2023-05-02T19:42:16.339Z,99992.16
2023-05-02T19:44:44.164Z,99990.50
2023-05-02T19:47:12.185Z,99993.88
2023-05-02T19:49:40.014Z,99982.88
2023-05-02T19:52:09.242Z,99976.88
2023-05-02T19:54:37.377Z,99974.22
2023-05-02T19:57:05.307Z,99993.63
2023-05-02T19:59:33.235Z,100001.31
2023-05-02T20:02:01.197Z,99999.66
2023-05-02T20:04:29.166Z,100014.88
2023-05-02T20:06:57.061Z,100002.22
2023-05-02T20:09:26.367Z,100017.44
2023-05-02T20:11:54.272Z,100019.97
2023-05-02T20:14:22.244Z,100019.16
2023-05-02T20:16:50.227Z,100012.38
2023-05-02T20:19:19.914Z,100031.84
2023-05-02T20:21:48.582Z,100021.69
2023-05-02T20:24:16.549Z,100036.56
2023-05-02T20:26:45.823Z,100029.72
2023-05-02T20:29:13.902Z,100029.72
2023-05-02T20:31:42.163Z,100025.50
2023-05-02T20:34:10.149Z,100029.66
2023-05-02T20:36:38.331Z,100040.53
2023-05-02T20:39:07.754Z,100042.22
2023-05-02T20:41:36.395Z,100049.81
2023-05-02T20:44:06.356Z,100047.38
2023-05-02T20:46:34.320Z,100048.25
2023-05-02T20:49:02.259Z,100048.19
2023-05-02T20:51:31.194Z,100044.66
2023-05-02T20:53:59.286Z,100060.44
2023-05-02T20:56:27.404Z,100059.59
2023-05-02T20:58:55.239Z,100065.56
2023-05-02T21:01:24.541Z,100052.22
2023-05-02T21:03:52.485Z,100046.38
2023-05-02T21:06:20.850Z,100054.56
2023-05-02T21:08:48.964Z,100057.75
2023-05-02T21:11:17.346Z,100056.91
2023-05-02T21:13:45.389Z,100050.34
2023-05-02T21:16:18.075Z,100038.44
2023-05-02T21:18:47.711Z,100038.25
2023-05-02T21:21:15.772Z,100040.75
2023-05-02T21:23:43.723Z,100040.78
2023-05-02T21:26:11.654Z,100039.00
2023-05-02T21:28:40.016Z,100051.56
2023-05-02T21:31:08.619Z,100050.66
2023-05-02T21:33:36.674Z,100047.91
2023-05-02T21:36:07.151Z,100053.69
2023-05-02T21:38:35.060Z,100053.56
2023-05-02T21:41:03.852Z,100051.78
2023-05-02T21:43:32.792Z,100052.56
2023-05-02T21:46:00.795Z,100055.06
2023-05-02T21:48:28.872Z,100060.06
2023-05-02T21:50:56.749Z,100059.16
2023-05-02T21:53:27.061Z,100058.25
2023-05-02T21:55:54.914Z,100061.66
2023-05-02T21:58:22.780Z,100059.22
2023-05-02T22:00:50.750Z,100053.28
2023-05-02T22:03:18.819Z,100059.16
2023-05-02T22:05:50.321Z,100065.09
2023-05-02T22:08:20.397Z,100068.50
2023-05-02T22:10:49.670Z,100068.59
2023-05-02T22:13:18.142Z,100066.31
2023-05-02T22:15:47.757Z,100074.00
2023-05-02T22:18:16.923Z,100069.00
2023-05-02T22:20:46.505Z,100073.34
2023-05-02T22:23:15.165Z,100067.50
2023-05-02T22:25:45.029Z,100065.69
2023-05-02T22:28:14.500Z,100059.78
2023-05-02T22:30:43.582Z,100058.88
2023-05-02T22:33:12.207Z,100056.13
2023-05-02T22:35:40.392Z,100050.13
2023-05-02T22:38:09.774Z,100059.44
2023-05-02T22:40:37.627Z,100053.47
2023-05-02T22:43:05.546Z,100046.53
2023-05-02T22:45:36.302Z,100051.63
2023-05-02T22:48:04.639Z,100055.91
2023-05-02T22:50:32.619Z,100050.09
2023-05-02T22:53:03.584Z,100048.97
2023-05-02T22:55:31.544Z,100035.22
2023-05-02T22:57:59.465Z,100047.91
2023-05-02T23:00:27.365Z,100052.81
2023-05-02T23:02:57.121Z,100056.94
2023-05-02T23:05:25.234Z,100059.38
2023-05-02T23:07:53.202Z,100061.25
2023-05-02T23:10:21.166Z,100069.94
2023-05-02T23:12:49.088Z,100038.03
2023-05-02T23:15:17.086Z,100073.72
2023-05-02T23:17:45.118Z,100059.44
2023-05-02T23:20:19.412Z,100060.22
2023-05-02T23:22:47.494Z,100062.56
2023-05-02T23:25:16.365Z,100051.53
2023-05-02T23:27:44.343Z,100054.03
2023-05-02T23:30:12.650Z,100048.06
2023-05-02T23:32:40.964Z,100044.69
2023-05-02T23:35:10.055Z,100048.91
2023-05-02T23:37:40.120Z,100046.31
2023-05-02T23:40:09.808Z,100048.13
2023-05-02T23:42:40.276Z,100052.38
2023-05-02T23:45:09.136Z,100048.16
2023-05-02T23:47:37.392Z,100049.88
2023-05-02T23:50:05.733Z,100047.34
2023-05-02T23:52:33.916Z,100046.38
2023-05-02T23:55:03.247Z,100031.81
2023-05-02T23:57:31.251Z,100040.09
2023-05-02T23:59:59.150Z,100041.72
